sensor_id;sensor_type;location;lat;lon;timestamp;temperature;humidity
12957;DHT22;6543;48.836;10.092;2023-03-02T00:00:31;1.70;99.90
12957;DHT22;6543;48.836;10.092;2023-03-02T00:02:58;2.00;99.90
12957;DHT22;6543;48.836;10.092;2023-03-02T00:05:28;0.80;99.90
12957;DHT22;6543;48.836;10.092;2023-03-02T00:07:56;0.80;99.90
12957;DHT22;6543;48.836;10.092;2023-03-02T00:10:23;0.80;99.90
12957;DHT22;6543;48.836;10.092;2023-03-02T00:12:51;1.00;99.90
12957;DHT22;6543;48.836;10.092;2023-03-02T00:15:18;0.90;99.90
12957;DHT22;6543;48.836;10.092;2023-03-02T00:17:44;1.50;99.90
12957;DHT22;6543;48.836;10.092;2023-03-02T00:20:12;1.30;99.90
12957;DHT22;6543;48.836;10.092;2023-03-02T00:22:42;0.80;99.90
12957;DHT22;6543;48.836;10.092;2023-03-02T00:25:10;0.70;99.90
12957;DHT22;6543;48.836;10.092;2023-03-02T00:27:37;0.60;99.90
12957;DHT22;6543;48.836;10.092;2023-03-02T00:30:05;0.60;99.90
12957;DHT22;6543;48.836;10.092;2023-03-02T00:32:32;0.60;99.90
12957;DHT22;6543;48.836;10.092;2023-03-02T00:34:59;0.60;99.90
12957;DHT22;6543;48.836;10.092;2023-03-02T00:37:26;0.60;99.90
12957;DHT22;6543;48.836;10.092;2023-03-02T00:39:54;0.60;99.90
12957;DHT22;6543;48.836;10.092;2023-03-02T00:42:21;1.00;99.90
12957;DHT22;6543;48.836;10.092;2023-03-02T00:44:48;1.90;99.90
12957;DHT22;6543;48.836;10.092;2023-03-02T00:47:15;0.30;99.90
12957;DHT22;6543;48.836;10.092;2023-03-02T00:49:41;0.30;99.90
12957;DHT22;6543;48.836;10.092;2023-03-02T00:52:13;0.40;99.90
12957;DHT22;6543;48.836;10.092;2023-03-02T00:54:40;0.30;99.90
12957;DHT22;6543;48.836;10.092;2023-03-02T00:57:08;0.30;99.90
12957;DHT22;6543;48.836;10.092;2023-03-02T00:59:36;0.00;99.90
12957;DHT22;6543;48.836;10.092;2023-03-02T01:02:04;0.30;99.90
12957;DHT22;6543;48.836;10.092;2023-03-02T01:04:33;0.30;99.90
12957;DHT22;6543;48.836;10.092;2023-03-02T01:07:02;0.40;99.90
12957;DHT22;6543;48.836;10.092;2023-03-02T01:09:29;0.40;99.90
12957;DHT22;6543;48.836;10.092;2023-03-02T01:11:56;0.80;99.90
12957;DHT22;6543;48.836;10.092;2023-03-02T01:14:24;0.30;99.90
12957;DHT22;6543;48.836;10.092;2023-03-02T01:16:51;0.30;99.90
12957;DHT22;6543;48.836;10.092;2023-03-02T01:19:18;0.30;99.90
12957;DHT22;6543;48.836;10.092;2023-03-02T01:21:45;0.30;99.90
12957;DHT22;6543;48.836;10.092;2023-03-02T01:24:12;-0.50;99.90
12957;DHT22;6543;48.836;10.092;2023-03-02T01:26:39;0.30;99.90
12957;DHT22;6543;48.836;10.092;2023-03-02T01:29:05;0.30;99.90
12957;DHT22;6543;48.836;10.092;2023-03-02T01:31:34;0.20;99.90
12957;DHT22;6543;48.836;10.092;2023-03-02T01:34:00;2.20;99.90
12957;DHT22;6543;48.836;10.092;2023-03-02T01:36:27;0.00;99.90
12957;DHT22;6543;48.836;10.092;2023-03-02T01:38:54;0.10;99.90
12957;DHT22;6543;48.836;10.092;2023-03-02T01:41:21;0.10;99.90
12957;DHT22;6543;48.836;10.092;2023-03-02T01:43:48;0.50;99.90
12957;DHT22;6543;48.836;10.092;2023-03-02T01:46:15;0.30;99.90
12957;DHT22;6543;48.836;10.092;2023-03-02T01:48:47;1.30;99.90
12957;DHT22;6543;48.836;10.092;2023-03-02T01:51:17;0.20;99.90
12957;DHT22;6543;48.836;10.092;2023-03-02T01:53:48;0.20;99.90
12957;DHT22;6543;48.836;10.092;2023-03-02T01:56:20;0.10;99.90
12957;DHT22;6543;48.836;10.092;2023-03-02T01:58:52;0.30;99.90
12957;DHT22;6543;48.836;10.092;2023-03-02T02:01:20;1.50;99.90
12957;DHT22;6543;48.836;10.092;2023-03-02T02:03:49;0.20;99.90
12957;DHT22;6543;48.836;10.092;2023-03-02T02:06:20;0.10;99.90
12957;DHT22;6543;48.836;10.092;2023-03-02T02:08:50;0.10;99.90
12957;DHT22;6543;48.836;10.092;2023-03-02T02:11:18;0.90;99.90
12957;DHT22;6543;48.836;10.092;2023-03-02T02:13:45;0.20;99.90
12957;DHT22;6543;48.836;10.092;2023-03-02T02:16:12;0.20;99.90
12957;DHT22;6543;48.836;10.092;2023-03-02T02:18:40;0.30;99.90
12957;DHT22;6543;48.836;10.092;2023-03-02T02:21:09;0.30;99.90
12957;DHT22;6543;48.836;10.092;2023-03-02T02:23:39;0.30;99.90
12957;DHT22;6543;48.836;10.092;2023-03-02T02:26:12;0.20;99.90
12957;DHT22;6543;48.836;10.092;2023-03-02T02:28:46;0.20;99.90
12957;DHT22;6543;48.836;10.092;2023-03-02T02:31:18;0.30;99.90
12957;DHT22;6543;48.836;10.092;2023-03-02T02:33:51;1.20;99.90
12957;DHT22;6543;48.836;10.092;2023-03-02T02:36:21;0.20;99.90
12957;DHT22;6543;48.836;10.092;2023-03-02T02:38:51;0.30;99.90
12957;DHT22;6543;48.836;10.092;2023-03-02T02:41:24;0.30;99.90
12957;DHT22;6543;48.836;10.092;2023-03-02T02:43:53;1.30;99.90
12957;DHT22;6543;48.836;10.092;2023-03-02T02:46:20;0.20;99.90
12957;DHT22;6543;48.836;10.092;2023-03-02T02:48:47;0.30;99.90
12957;DHT22;6543;48.836;10.092;2023-03-02T02:51:19;0.30;99.90
12957;DHT22;6543;48.836;10.092;2023-03-02T02:53:49;0.30;99.90
12957;DHT22;6543;48.836;10.092;2023-03-02T02:56:25;1.80;99.90
12957;DHT22;6543;48.836;10.092;2023-03-02T02:58:53;0.20;99.90
12957;DHT22;6543;48.836;10.092;2023-03-02T03:01:22;0.20;99.90
12957;DHT22;6543;48.836;10.092;2023-03-02T03:03:52;0.10;99.90
12957;DHT22;6543;48.836;10.092;2023-03-02T03:06:23;0.10;99.90
12957;DHT22;6543;48.836;10.092;2023-03-02T03:08:59;0.80;99.90
12957;DHT22;6543;48.836;10.092;2023-03-02T03:11:29;0.10;99.90
12957;DHT22;6543;48.836;10.092;2023-03-02T03:14:08;0.00;99.90
12957;DHT22;6543;48.836;10.092;2023-03-02T03:16:36;0.00;99.90
12957;DHT22;6543;48.836;10.092;2023-03-02T03:19:07;0.10;99.90
12957;DHT22;6543;48.836;10.092;2023-03-02T03:21:35;-0.20;99.90
12957;DHT22;6543;48.836;10.092;2023-03-02T03:24:03;0.10;99.90
12957;DHT22;6543;48.836;10.092;2023-03-02T03:26:31;0.10;99.90
12957;DHT22;6543;48.836;10.092;2023-03-02T03:28:58;0.10;99.90
12957;DHT22;6543;48.836;10.092;2023-03-02T03:31:26;0.10;99.90
12957;DHT22;6543;48.836;10.092;2023-03-02T03:33:53;0.20;99.90
12957;DHT22;6543;48.836;10.092;2023-03-02T03:36:21;0.10;99.90
12957;DHT22;6543;48.836;10.092;2023-03-02T03:38:48;0.80;99.90
12957;DHT22;6543;48.836;10.092;2023-03-02T03:41:15;0.00;99.90
12957;DHT22;6543;48.836;10.092;2023-03-02T03:43:43;0.00;99.90
12957;DHT22;6543;48.836;10.092;2023-03-02T03:46:10;-0.10;99.90
12957;DHT22;6543;48.836;10.092;2023-03-02T03:48:37;-0.10;99.90
12957;DHT22;6543;48.836;10.092;2023-03-02T03:51:04;-0.10;99.90
12957;DHT22;6543;48.836;10.092;2023-03-02T03:53:31;0.00;99.90
12957;DHT22;6543;48.836;10.092;2023-03-02T03:55:58;0.00;99.90
12957;DHT22;6543;48.836;10.092;2023-03-02T03:58:25;0.00;99.90
12957;DHT22;6543;48.836;10.092;2023-03-02T04:00:53;0.00;99.90
12957;DHT22;6543;48.836;10.092;2023-03-02T04:03:21;0.00;99.90
12957;DHT22;6543;48.836;10.092;2023-03-02T04:05:48;0.00;99.90
12957;DHT22;6543;48.836;10.092;2023-03-02T04:08:15;-0.10;99.90
12957;DHT22;6543;48.836;10.092;2023-03-02T04:10:42;-0.10;99.90
12957;DHT22;6543;48.836;10.092;2023-03-02T04:13:09;0.80;99.90
12957;DHT22;6543;48.836;10.092;2023-03-02T04:15:37;-0.10;99.90
12957;DHT22;6543;48.836;10.092;2023-03-02T04:18:05;-0.10;99.90
12957;DHT22;6543;48.836;10.092;2023-03-02T04:20:32;-0.10;99.90
12957;DHT22;6543;48.836;10.092;2023-03-02T04:22:59;-0.10;99.90
12957;DHT22;6543;48.836;10.092;2023-03-02T04:25:27;1.90;99.90
12957;DHT22;6543;48.836;10.092;2023-03-02T04:27:55;-0.10;99.90
12957;DHT22;6543;48.836;10.092;2023-03-02T04:30:24;-0.10;99.90
12957;DHT22;6543;48.836;10.092;2023-03-02T04:32:51;-0.10;99.90
12957;DHT22;6543;48.836;10.092;2023-03-02T04:35:19;-0.10;99.90
12957;DHT22;6543;48.836;10.092;2023-03-02T04:37:46;-0.10;99.90
12957;DHT22;6543;48.836;10.092;2023-03-02T04:40:14;-0.10;99.90
12957;DHT22;6543;48.836;10.092;2023-03-02T04:42:42;0.40;99.90
12957;DHT22;6543;48.836;10.092;2023-03-02T04:45:11;0.00;99.90
12957;DHT22;6543;48.836;10.092;2023-03-02T04:47:38;0.00;99.90
12957;DHT22;6543;48.836;10.092;2023-03-02T04:50:06;-0.10;99.90
12957;DHT22;6543;48.836;10.092;2023-03-02T04:52:35;-0.10;99.90
12957;DHT22;6543;48.836;10.092;2023-03-02T04:55:03;-0.10;99.90
12957;DHT22;6543;48.836;10.092;2023-03-02T04:57:30;-0.10;99.90
12957;DHT22;6543;48.836;10.092;2023-03-02T04:59:57;-0.20;99.90
12957;DHT22;6543;48.836;10.092;2023-03-02T05:02:24;1.00;99.90
12957;DHT22;6543;48.836;10.092;2023-03-02T05:04:50;-0.10;99.90
12957;DHT22;6543;48.836;10.092;2023-03-02T05:07:17;-0.10;99.90
12957;DHT22;6543;48.836;10.092;2023-03-02T05:09:45;-0.10;99.90
12957;DHT22;6543;48.836;10.092;2023-03-02T05:12:12;0.40;99.90
12957;DHT22;6543;48.836;10.092;2023-03-02T05:14:40;-0.10;99.90
12957;DHT22;6543;48.836;10.092;2023-03-02T05:17:07;1.00;99.90
12957;DHT22;6543;48.836;10.092;2023-03-02T05:19:33;0.00;99.90
12957;DHT22;6543;48.836;10.092;2023-03-02T05:22:00;-0.10;99.90
12957;DHT22;6543;48.836;10.092;2023-03-02T05:24:27;-0.10;99.90
12957;DHT22;6543;48.836;10.092;2023-03-02T05:26:56;-0.10;99.90
12957;DHT22;6543;48.836;10.092;2023-03-02T05:29:23;-0.10;99.90
12957;DHT22;6543;48.836;10.092;2023-03-02T05:31:49;-0.20;99.90
12957;DHT22;6543;48.836;10.092;2023-03-02T05:34:17;-0.10;99.90
12957;DHT22;6543;48.836;10.092;2023-03-02T05:36:44;-0.10;99.90
12957;DHT22;6543;48.836;10.092;2023-03-02T05:39:11;-0.10;99.90
12957;DHT22;6543;48.836;10.092;2023-03-02T05:41:38;-0.10;99.90
12957;DHT22;6543;48.836;10.092;2023-03-02T05:44:07;-0.20;99.90
12957;DHT22;6543;48.836;10.092;2023-03-02T05:46:36;-0.10;99.90
12957;DHT22;6543;48.836;10.092;2023-03-02T05:49:03;-0.10;99.90
12957;DHT22;6543;48.836;10.092;2023-03-02T05:51:30;-0.10;99.90
12957;DHT22;6543;48.836;10.092;2023-03-02T05:53:57;-0.10;99.90
12957;DHT22;6543;48.836;10.092;2023-03-02T05:56:23;-0.10;99.90
12957;DHT22;6543;48.836;10.092;2023-03-02T05:58:50;0.60;99.90
12957;DHT22;6543;48.836;10.092;2023-03-02T06:01:18;-0.20;99.90
12957;DHT22;6543;48.836;10.092;2023-03-02T06:03:45;-0.20;99.90
12957;DHT22;6543;48.836;10.092;2023-03-02T06:06:12;-0.10;99.90
12957;DHT22;6543;48.836;10.092;2023-03-02T06:08:39;0.00;99.90
12957;DHT22;6543;48.836;10.092;2023-03-02T06:11:07;0.00;99.90
12957;DHT22;6543;48.836;10.092;2023-03-02T06:13:35;0.00;99.90
12957;DHT22;6543;48.836;10.092;2023-03-02T06:16:03;0.00;99.90
12957;DHT22;6543;48.836;10.092;2023-03-02T06:18:31;-0.10;99.90
12957;DHT22;6543;48.836;10.092;2023-03-02T06:20:58;0.00;99.90
12957;DHT22;6543;48.836;10.092;2023-03-02T06:23:25;0.00;99.90
12957;DHT22;6543;48.836;10.092;2023-03-02T06:25:52;0.00;99.90
12957;DHT22;6543;48.836;10.092;2023-03-02T06:28:19;0.00;99.90
12957;DHT22;6543;48.836;10.092;2023-03-02T06:30:47;0.90;99.90
12957;DHT22;6543;48.836;10.092;2023-03-02T06:33:14;-0.10;99.90
12957;DHT22;6543;48.836;10.092;2023-03-02T06:35:44;0.20;99.90
12957;DHT22;6543;48.836;10.092;2023-03-02T06:38:11;0.20;99.90
12957;DHT22;6543;48.836;10.092;2023-03-02T06:40:38;0.30;99.90
12957;DHT22;6543;48.836;10.092;2023-03-02T06:43:04;1.60;99.90
12957;DHT22;6543;48.836;10.092;2023-03-02T06:45:31;0.30;99.90
12957;DHT22;6543;48.836;10.092;2023-03-02T06:47:59;0.40;99.90
12957;DHT22;6543;48.836;10.092;2023-03-02T06:50:26;0.30;99.90
12957;DHT22;6543;48.836;10.092;2023-03-02T06:52:55;0.40;99.90
12957;DHT22;6543;48.836;10.092;2023-03-02T06:55:22;0.90;99.90
12957;DHT22;6543;48.836;10.092;2023-03-02T06:57:50;0.40;99.90
12957;DHT22;6543;48.836;10.092;2023-03-02T07:00:17;0.40;99.90
12957;DHT22;6543;48.836;10.092;2023-03-02T07:02:49;0.50;99.90
12957;DHT22;6543;48.836;10.092;2023-03-02T07:05:17;0.50;99.90
12957;DHT22;6543;48.836;10.092;2023-03-02T07:07:44;0.70;99.90
12957;DHT22;6543;48.836;10.092;2023-03-02T07:10:12;0.60;99.90
12957;DHT22;6543;48.836;10.092;2023-03-02T07:12:39;0.80;99.90
12957;DHT22;6543;48.836;10.092;2023-03-02T07:15:08;0.80;99.90
12957;DHT22;6543;48.836;10.092;2023-03-02T07:17:36;0.80;99.90
12957;DHT22;6543;48.836;10.092;2023-03-02T07:20:04;0.80;99.90
12957;DHT22;6543;48.836;10.092;2023-03-02T07:22:32;0.90;99.90
12957;DHT22;6543;48.836;10.092;2023-03-02T07:24:58;0.90;99.90
12957;DHT22;6543;48.836;10.092;2023-03-02T07:27:27;1.00;99.90
12957;DHT22;6543;48.836;10.092;2023-03-02T07:29:53;1.00;99.90
12957;DHT22;6543;48.836;10.092;2023-03-02T07:32:20;1.10;99.90
12957;DHT22;6543;48.836;10.092;2023-03-02T07:34:47;1.20;99.90
12957;DHT22;6543;48.836;10.092;2023-03-02T07:37:14;1.30;99.90
12957;DHT22;6543;48.836;10.092;2023-03-02T07:39:41;1.40;99.90
12957;DHT22;6543;48.836;10.092;2023-03-02T07:42:10;1.40;99.90
12957;DHT22;6543;48.836;10.092;2023-03-02T07:44:39;1.40;99.90
12957;DHT22;6543;48.836;10.092;2023-03-02T07:47:06;1.40;99.90
12957;DHT22;6543;48.836;10.092;2023-03-02T07:49:32;2.20;99.90
12957;DHT22;6543;48.836;10.092;2023-03-02T07:52:01;3.00;99.90
12957;DHT22;6543;48.836;10.092;2023-03-02T07:54:31;3.40;99.90
12957;DHT22;6543;48.836;10.092;2023-03-02T07:56:58;1.60;99.90
12957;DHT22;6543;48.836;10.092;2023-03-02T07:59:27;2.40;99.90
12957;DHT22;6543;48.836;10.092;2023-03-02T08:01:56;3.80;99.90
12957;DHT22;6543;48.836;10.092;2023-03-02T08:04:23;1.80;99.90
12957;DHT22;6543;48.836;10.092;2023-03-02T08:06:51;1.90;99.90
12957;DHT22;6543;48.836;10.092;2023-03-02T08:09:17;2.00;99.90
12957;DHT22;6543;48.836;10.092;2023-03-02T08:11:44;2.00;99.90
12957;DHT22;6543;48.836;10.092;2023-03-02T08:14:12;2.00;99.90
12957;DHT22;6543;48.836;10.092;2023-03-02T08:16:39;2.10;99.90
12957;DHT22;6543;48.836;10.092;2023-03-02T08:19:07;2.30;99.90
12957;DHT22;6543;48.836;10.092;2023-03-02T08:21:35;2.90;99.90
12957;DHT22;6543;48.836;10.092;2023-03-02T08:24:02;2.50;99.90
12957;DHT22;6543;48.836;10.092;2023-03-02T08:26:30;2.70;99.90
12957;DHT22;6543;48.836;10.092;2023-03-02T08:28:57;3.50;99.90
12957;DHT22;6543;48.836;10.092;2023-03-02T08:31:24;2.70;99.90
12957;DHT22;6543;48.836;10.092;2023-03-02T08:33:51;2.90;99.90
12957;DHT22;6543;48.836;10.092;2023-03-02T08:36:20;3.10;99.90
12957;DHT22;6543;48.836;10.092;2023-03-02T08:38:47;3.30;99.90
12957;DHT22;6543;48.836;10.092;2023-03-02T08:41:16;3.30;99.90
12957;DHT22;6543;48.836;10.092;2023-03-02T08:43:45;3.30;99.90
12957;DHT22;6543;48.836;10.092;2023-03-02T08:46:13;3.30;99.90
12957;DHT22;6543;48.836;10.092;2023-03-02T08:48:41;3.40;99.90
12957;DHT22;6543;48.836;10.092;2023-03-02T08:51:11;5.00;99.90
12957;DHT22;6543;48.836;10.092;2023-03-02T08:53:41;3.70;99.90
12957;DHT22;6543;48.836;10.092;2023-03-02T08:56:15;4.20;99.90
12957;DHT22;6543;48.836;10.092;2023-03-02T08:58:42;3.90;99.90
12957;DHT22;6543;48.836;10.092;2023-03-02T09:01:13;4.00;99.90
12957;DHT22;6543;48.836;10.092;2023-03-02T09:03:40;4.10;99.90
12957;DHT22;6543;48.836;10.092;2023-03-02T09:06:07;4.40;99.90
12957;DHT22;6543;48.836;10.092;2023-03-02T09:08:34;4.40;99.90
12957;DHT22;6543;48.836;10.092;2023-03-02T09:11:02;4.60;99.90
12957;DHT22;6543;48.836;10.092;2023-03-02T09:13:29;4.70;99.90
12957;DHT22;6543;48.836;10.092;2023-03-02T09:15:55;4.80;99.90
12957;DHT22;6543;48.836;10.092;2023-03-02T09:18:22;4.80;99.90
12957;DHT22;6543;48.836;10.092;2023-03-02T09:20:50;4.90;99.90
12957;DHT22;6543;48.836;10.092;2023-03-02T09:23:17;5.50;99.90
12957;DHT22;6543;48.836;10.092;2023-03-02T09:25:44;5.10;99.90
12957;DHT22;6543;48.836;10.092;2023-03-02T09:28:15;5.20;99.90
12957;DHT22;6543;48.836;10.092;2023-03-02T09:30:47;6.50;99.90
12957;DHT22;6543;48.836;10.092;2023-03-02T09:33:14;5.20;99.90
12957;DHT22;6543;48.836;10.092;2023-03-02T09:35:41;5.90;99.90
12957;DHT22;6543;48.836;10.092;2023-03-02T09:38:08;5.50;99.90
12957;DHT22;6543;48.836;10.092;2023-03-02T09:40:41;5.70;99.90
12957;DHT22;6543;48.836;10.092;2023-03-02T09:43:24;6.10;99.90
12957;DHT22;6543;48.836;10.092;2023-03-02T09:46:02;5.50;99.90
12957;DHT22;6543;48.836;10.092;2023-03-02T09:48:38;5.60;99.90
12957;DHT22;6543;48.836;10.092;2023-03-02T09:51:14;5.80;99.90
12957;DHT22;6543;48.836;10.092;2023-03-02T09:53:50;5.60;99.90
12957;DHT22;6543;48.836;10.092;2023-03-02T09:56:19;5.60;99.90
12957;DHT22;6543;48.836;10.092;2023-03-02T09:58:52;5.70;99.90
12957;DHT22;6543;48.836;10.092;2023-03-02T10:01:29;5.60;99.90
12957;DHT22;6543;48.836;10.092;2023-03-02T10:04:05;6.00;99.90
12957;DHT22;6543;48.836;10.092;2023-03-02T10:06:34;6.20;99.90
12957;DHT22;6543;48.836;10.092;2023-03-02T10:09:01;6.00;99.90
12957;DHT22;6543;48.836;10.092;2023-03-02T10:11:35;7.00;99.90
12957;DHT22;6543;48.836;10.092;2023-03-02T10:14:11;6.00;99.90
12957;DHT22;6543;48.836;10.092;2023-03-02T10:16:46;6.10;99.90
12957;DHT22;6543;48.836;10.092;2023-03-02T10:19:17;6.10;99.90
12957;DHT22;6543;48.836;10.092;2023-03-02T10:21:49;6.30;99.90
12957;DHT22;6543;48.836;10.092;2023-03-02T10:24:25;6.70;99.90
12957;DHT22;6543;48.836;10.092;2023-03-02T10:27:00;6.60;99.90
12957;DHT22;6543;48.836;10.092;2023-03-02T10:29:39;6.70;99.90
12957;DHT22;6543;48.836;10.092;2023-03-02T10:32:17;6.50;99.90
12957;DHT22;6543;48.836;10.092;2023-03-02T10:34:45;6.60;99.90
12957;DHT22;6543;48.836;10.092;2023-03-02T10:37:14;6.90;99.90
12957;DHT22;6543;48.836;10.092;2023-03-02T10:39:41;7.60;99.90
12957;DHT22;6543;48.836;10.092;2023-03-02T10:42:13;6.90;99.90
12957;DHT22;6543;48.836;10.092;2023-03-02T10:44:45;7.30;99.90
12957;DHT22;6543;48.836;10.092;2023-03-02T10:47:21;7.30;99.90
12957;DHT22;6543;48.836;10.092;2023-03-02T10:49:49;7.30;99.90
12957;DHT22;6543;48.836;10.092;2023-03-02T10:52:18;7.40;99.90
12957;DHT22;6543;48.836;10.092;2023-03-02T10:54:45;7.50;99.90
12957;DHT22;6543;48.836;10.092;2023-03-02T10:57:34;7.70;99.90
12957;DHT22;6543;48.836;10.092;2023-03-02T11:00:13;7.70;99.90
12957;DHT22;6543;48.836;10.092;2023-03-02T11:02:48;7.80;99.90
12957;DHT22;6543;48.836;10.092;2023-03-02T11:05:32;7.80;99.90
12957;DHT22;6543;48.836;10.092;2023-03-02T11:08:02;7.90;99.90
12957;DHT22;6543;48.836;10.092;2023-03-02T11:10:31;8.00;99.90
12957;DHT22;6543;48.836;10.092;2023-03-02T11:13:00;8.70;99.90
12957;DHT22;6543;48.836;10.092;2023-03-02T11:15:34;8.20;99.90
12957;DHT22;6543;48.836;10.092;2023-03-02T11:18:10;8.40;99.90
12957;DHT22;6543;48.836;10.092;2023-03-02T11:20:42;8.50;99.90
12957;DHT22;6543;48.836;10.092;2023-03-02T11:23:18;8.40;99.90
12957;DHT22;6543;48.836;10.092;2023-03-02T11:25:51;8.60;99.90
12957;DHT22;6543;48.836;10.092;2023-03-02T11:28:33;8.70;99.90
12957;DHT22;6543;48.836;10.092;2023-03-02T11:31:06;8.70;99.90
12957;DHT22;6543;48.836;10.092;2023-03-02T11:33:40;8.70;99.90
12957;DHT22;6543;48.836;10.092;2023-03-02T11:36:13;8.50;99.90
12957;DHT22;6543;48.836;10.092;2023-03-02T11:38:47;8.50;99.90
12957;DHT22;6543;48.836;10.092;2023-03-02T11:41:24;9.50;99.90
12957;DHT22;6543;48.836;10.092;2023-03-02T11:43:55;8.80;99.90
12957;DHT22;6543;48.836;10.092;2023-03-02T11:46:26;8.60;99.90
12957;DHT22;6543;48.836;10.092;2023-03-02T11:48:57;10.30;99.90
12957;DHT22;6543;48.836;10.092;2023-03-02T11:51:27;9.00;99.90
12957;DHT22;6543;48.836;10.092;2023-03-02T11:53:57;10.30;99.90
12957;DHT22;6543;48.836;10.092;2023-03-02T11:56:29;9.20;99.90
12957;DHT22;6543;48.836;10.092;2023-03-02T11:58:59;9.30;99.90
12957;DHT22;6543;48.836;10.092;2023-03-02T12:01:32;9.40;99.90
12957;DHT22;6543;48.836;10.092;2023-03-02T12:04:07;9.20;99.90
12957;DHT22;6543;48.836;10.092;2023-03-02T12:06:37;9.30;99.90
12957;DHT22;6543;48.836;10.092;2023-03-02T12:09:28;9.30;99.90
12957;DHT22;6543;48.836;10.092;2023-03-02T12:11:57;9.60;99.90
12957;DHT22;6543;48.836;10.092;2023-03-02T12:14:28;9.50;99.90
12957;DHT22;6543;48.836;10.092;2023-03-02T12:17:16;9.80;99.90
12957;DHT22;6543;48.836;10.092;2023-03-02T12:19:45;9.90;99.90
12957;DHT22;6543;48.836;10.092;2023-03-02T12:22:12;9.70;99.90
12957;DHT22;6543;48.836;10.092;2023-03-02T12:24:41;9.90;99.90
12957;DHT22;6543;48.836;10.092;2023-03-02T12:27:23;9.90;99.90
12957;DHT22;6543;48.836;10.092;2023-03-02T12:29:55;9.80;99.90
12957;DHT22;6543;48.836;10.092;2023-03-02T12:32:35;9.80;99.90
12957;DHT22;6543;48.836;10.092;2023-03-02T12:35:08;9.70;99.90
12957;DHT22;6543;48.836;10.092;2023-03-02T12:37:43;9.80;99.90
12957;DHT22;6543;48.836;10.092;2023-03-02T12:40:27;9.80;99.90
12957;DHT22;6543;48.836;10.092;2023-03-02T12:43:18;9.90;99.90
12957;DHT22;6543;48.836;10.092;2023-03-02T12:48:42;10.10;99.90
12957;DHT22;6543;48.836;10.092;2023-03-02T12:51:15;10.10;99.90
12957;DHT22;6543;48.836;10.092;2023-03-02T12:53:43;10.00;99.90
12957;DHT22;6543;48.836;10.092;2023-03-02T12:56:21;10.80;99.90
12957;DHT22;6543;48.836;10.092;2023-03-02T12:58:48;10.00;99.90
12957;DHT22;6543;48.836;10.092;2023-03-02T13:01:20;10.10;99.90
12957;DHT22;6543;48.836;10.092;2023-03-02T13:03:50;10.10;99.90
12957;DHT22;6543;48.836;10.092;2023-03-02T13:06:17;10.10;99.90
12957;DHT22;6543;48.836;10.092;2023-03-02T13:08:46;10.10;99.90
12957;DHT22;6543;48.836;10.092;2023-03-02T13:11:21;10.10;99.90
12957;DHT22;6543;48.836;10.092;2023-03-02T13:13:49;10.00;99.90
12957;DHT22;6543;48.836;10.092;2023-03-02T13:16:21;10.60;99.90
12957;DHT22;6543;48.836;10.092;2023-03-02T13:18:52;10.30;99.90
12957;DHT22;6543;48.836;10.092;2023-03-02T13:21:25;10.30;99.90
12957;DHT22;6543;48.836;10.092;2023-03-02T13:23:53;10.60;99.90
12957;DHT22;6543;48.836;10.092;2023-03-02T13:26:24;10.70;99.90
12957;DHT22;6543;48.836;10.092;2023-03-02T13:29:00;10.50;99.90
12957;DHT22;6543;48.836;10.092;2023-03-02T13:31:27;10.60;99.90
12957;DHT22;6543;48.836;10.092;2023-03-02T13:33:57;10.60;99.90
12957;DHT22;6543;48.836;10.092;2023-03-02T13:36:26;10.50;99.90
12957;DHT22;6543;48.836;10.092;2023-03-02T13:38:56;10.50;99.90
12957;DHT22;6543;48.836;10.092;2023-03-02T13:41:25;10.40;99.90
12957;DHT22;6543;48.836;10.092;2023-03-02T13:43:53;10.40;99.90
12957;DHT22;6543;48.836;10.092;2023-03-02T13:46:26;10.50;99.90
12957;DHT22;6543;48.836;10.092;2023-03-02T13:48:54;10.60;99.90
12957;DHT22;6543;48.836;10.092;2023-03-02T13:51:22;10.80;99.90
12957;DHT22;6543;48.836;10.092;2023-03-02T13:53:52;10.70;99.90
12957;DHT22;6543;48.836;10.092;2023-03-02T13:56:27;10.70;99.90
12957;DHT22;6543;48.836;10.092;2023-03-02T13:58:55;10.90;99.90
12957;DHT22;6543;48.836;10.092;2023-03-02T14:01:22;10.80;99.90
12957;DHT22;6543;48.836;10.092;2023-03-02T14:03:51;10.90;99.90
12957;DHT22;6543;48.836;10.092;2023-03-02T14:06:18;12.70;99.90
12957;DHT22;6543;48.836;10.092;2023-03-02T14:08:46;11.20;99.90
12957;DHT22;6543;48.836;10.092;2023-03-02T14:11:15;10.80;99.90
12957;DHT22;6543;48.836;10.092;2023-03-02T14:13:46;11.00;99.90
12957;DHT22;6543;48.836;10.092;2023-03-02T14:16:15;11.70;99.90
12957;DHT22;6543;48.836;10.092;2023-03-02T14:18:44;11.00;99.90
12957;DHT22;6543;48.836;10.092;2023-03-02T14:21:13;11.00;99.90
12957;DHT22;6543;48.836;10.092;2023-03-02T14:23:40;12.60;99.90
12957;DHT22;6543;48.836;10.092;2023-03-02T14:26:20;11.20;99.90
12957;DHT22;6543;48.836;10.092;2023-03-02T14:28:50;11.40;99.90
12957;DHT22;6543;48.836;10.092;2023-03-02T14:31:17;11.10;99.90
12957;DHT22;6543;48.836;10.092;2023-03-02T14:33:43;11.20;99.90
12957;DHT22;6543;48.836;10.092;2023-03-02T14:36:13;11.20;99.90
12957;DHT22;6543;48.836;10.092;2023-03-02T14:38:41;11.10;99.90
12957;DHT22;6543;48.836;10.092;2023-03-02T14:41:12;11.00;99.90
12957;DHT22;6543;48.836;10.092;2023-03-02T14:43:41;11.00;99.90
12957;DHT22;6543;48.836;10.092;2023-03-02T14:46:08;11.10;99.90
12957;DHT22;6543;48.836;10.092;2023-03-02T14:48:34;12.40;99.90
12957;DHT22;6543;48.836;10.092;2023-03-02T14:51:01;10.80;99.90
12957;DHT22;6543;48.836;10.092;2023-03-02T14:53:32;10.80;99.90
12957;DHT22;6543;48.836;10.092;2023-03-02T14:56:00;10.90;99.90
12957;DHT22;6543;48.836;10.092;2023-03-02T14:58:30;11.10;99.90
12957;DHT22;6543;48.836;10.092;2023-03-02T15:00:59;11.10;99.90
12957;DHT22;6543;48.836;10.092;2023-03-02T15:03:26;11.20;99.90
12957;DHT22;6543;48.836;10.092;2023-03-02T15:05:54;11.10;99.90
12957;DHT22;6543;48.836;10.092;2023-03-02T15:08:22;11.10;99.90
12957;DHT22;6543;48.836;10.092;2023-03-02T15:10:49;11.10;99.90
12957;DHT22;6543;48.836;10.092;2023-03-02T15:13:16;11.60;99.90
12957;DHT22;6543;48.836;10.092;2023-03-02T15:15:43;11.10;99.90
12957;DHT22;6543;48.836;10.092;2023-03-02T15:18:13;11.50;99.90
12957;DHT22;6543;48.836;10.092;2023-03-02T15:20:43;10.90;99.90
12957;DHT22;6543;48.836;10.092;2023-03-02T15:23:10;10.90;99.90
12957;DHT22;6543;48.836;10.092;2023-03-02T15:25:37;10.90;99.90
12957;DHT22;6543;48.836;10.092;2023-03-02T15:28:04;10.80;99.90
12957;DHT22;6543;48.836;10.092;2023-03-02T15:30:31;10.80;99.90
12957;DHT22;6543;48.836;10.092;2023-03-02T15:33:07;11.90;99.90
12957;DHT22;6543;48.836;10.092;2023-03-02T15:35:37;10.90;99.90
12957;DHT22;6543;48.836;10.092;2023-03-02T15:38:05;10.70;99.90
12957;DHT22;6543;48.836;10.092;2023-03-02T15:40:32;10.70;99.90
12957;DHT22;6543;48.836;10.092;2023-03-02T15:42:59;10.60;99.90
12957;DHT22;6543;48.836;10.092;2023-03-02T15:45:26;10.60;99.90
12957;DHT22;6543;48.836;10.092;2023-03-02T15:47:53;10.60;99.90
12957;DHT22;6543;48.836;10.092;2023-03-02T15:50:20;10.60;99.90
12957;DHT22;6543;48.836;10.092;2023-03-02T15:52:48;10.50;99.90
12957;DHT22;6543;48.836;10.092;2023-03-02T15:55:15;10.50;99.90